Time;durP1;ratioP1;P1;durP2;ratioP2;P2;SDS_P1;SDS_P2;PMS_P1;PMS_P2;Temp;Humidity;BMP_temperature;BMP_pressure;BME280_temperature;BME280_humidity;BME280_pressure;Samples;Min_cycle;Max_cycle;Signal;HPM_P1;HPM_P2
2023/03/27 00:00:44;;;;;;;9.10;2.30;;;;;;;;;;5037338;28;20149;-74
2023/03/27 00:03:11;;;;;;;8.15;2.03;;;;;;;;;;5035741;28;20045;-74
2023/03/27 00:05:37;;;;;;;8.18;2.17;;;;;;;;;;5034923;28;20084;-74
2023/03/27 00:08:04;;;;;;;7.30;2.33;;;;;;;;;;5037096;28;20052;-74
2023/03/27 00:10:31;;;;;;;8.27;2.00;;;;;;;;;;5020443;28;20509;-74
2023/03/27 00:12:58;;;;;;;11.15;2.55;;;;;;;;;;5054758;28;20060;-73
2023/03/27 00:15:24;;;;;;;10.52;2.30;;;;;;;;;;5034740;28;20037;-74
2023/03/27 00:17:53;;;;;;;13.13;2.25;;;;;;;;;;5054743;28;20056;-74
2023/03/27 00:20:23;;;;;;;8.45;2.20;;;;;;;;;;5054467;28;20448;-73
2023/03/27 00:22:55;;;;;;;10.70;2.03;;;;;;;;;;5054694;28;20090;-73
2023/03/27 00:25:25;;;;;;;13.38;2.60;;;;;;;;;;5004668;28;20095;-74
2023/03/27 00:27:53;;;;;;;12.27;2.22;;;;;;;;;;5054652;28;20045;-73
2023/03/27 00:30:19;;;;;;;7.85;2.05;;;;;;;;;;5054932;28;20444;-73
2023/03/27 00:32:46;;;;;;;8.70;1.90;;;;;;;;;;5054232;28;20045;-73
2023/03/27 00:35:13;;;;;;;9.93;2.30;;;;;;;;;;5035348;28;20041;-74
2023/03/27 00:37:39;;;;;;;7.60;2.08;;;;;;;;;;5054103;28;20060;-74
2023/03/27 00:40:18;;;;;;;9.05;2.17;;;;;;;;;;5036328;28;20045;-73
2023/03/27 00:42:56;;;;;;;6.75;2.10;;;;;;;;;;5019765;28;20099;-73
2023/03/27 00:45:32;;;;;;;9.95;2.38;;;;;;;;;;5036309;28;20044;-74
2023/03/27 00:48:01;;;;;;;11.95;2.45;;;;;;;;;;5054134;28;20051;-74
2023/03/27 00:50:29;;;;;;;8.65;1.92;;;;;;;;;;5036182;28;20045;-73
2023/03/27 00:52:57;;;;;;;12.05;2.42;;;;;;;;;;5036055;28;20087;-73
2023/03/27 00:55:26;;;;;;;7.75;2.25;;;;;;;;;;5036225;28;20194;-73
2023/03/27 00:57:56;;;;;;;8.25;1.80;;;;;;;;;;5054027;28;20048;-74
2023/03/27 01:00:23;;;;;;;8.02;2.03;;;;;;;;;;5053906;28;20041;-73
2023/03/27 01:02:50;;;;;;;8.65;2.00;;;;;;;;;;5035906;28;20099;-73
2023/03/27 01:05:18;;;;;;;8.60;2.47;;;;;;;;;;5053960;28;20464;-74
2023/03/27 01:07:46;;;;;;;9.32;1.85;;;;;;;;;;5036194;28;20084;-73
2023/03/27 01:10:12;;;;;;;8.18;2.00;;;;;;;;;;5053807;28;20045;-74
2023/03/27 01:12:50;;;;;;;9.73;2.58;;;;;;;;;;5053592;28;20064;-73
2023/03/27 01:15:31;;;;;;;11.90;2.33;;;;;;;;;;5035593;28;20439;-73
2023/03/27 01:18:03;;;;;;;12.57;2.65;;;;;;;;;;5053875;28;20044;-73
2023/03/27 01:20:41;;;;;;;8.00;2.05;;;;;;;;;;5053617;28;20044;-73
2023/03/27 01:23:07;;;;;;;6.93;2.00;;;;;;;;;;5035756;28;20049;-74
2023/03/27 01:25:52;;;;;;;10.02;2.10;;;;;;;;;;5035445;28;20048;-74
2023/03/27 01:28:25;;;;;;;7.95;1.88;;;;;;;;;;5035578;28;20477;-74
2023/03/27 01:30:57;;;;;;;10.60;2.40;;;;;;;;;;5035822;28;20072;-73
2023/03/27 01:33:32;;;;;;;8.73;2.03;;;;;;;;;;5018866;28;20052;-74
2023/03/27 01:36:12;;;;;;;9.80;1.98;;;;;;;;;;5053378;28;20041;-74
2023/03/27 01:38:56;;;;;;;10.32;2.00;;;;;;;;;;5048507;28;20459;-73
2023/03/27 01:41:27;;;;;;;7.05;1.80;;;;;;;;;;5073237;28;20041;-74
2023/03/27 01:43:57;;;;;;;7.90;2.30;;;;;;;;;;5054592;28;20060;-74
2023/03/27 01:46:23;;;;;;;7.03;2.05;;;;;;;;;;5055111;28;20041;-73
2023/03/27 01:48:55;;;;;;;9.45;2.08;;;;;;;;;;5072968;28;20048;-74
2023/03/27 01:51:20;;;;;;;11.52;2.15;;;;;;;;;;5071628;28;20048;-74
2023/03/27 01:53:51;;;;;;;10.45;2.38;;;;;;;;;;5054963;28;20059;-73
2023/03/27 01:56:31;;;;;;;5.53;1.92;;;;;;;;;;5055208;28;20052;-73
2023/03/27 01:59:02;;;;;;;7.43;2.13;;;;;;;;;;5072694;28;20212;-74
2023/03/27 02:01:32;;;;;;;12.82;2.50;;;;;;;;;;5038216;28;20080;-73
2023/03/27 02:04:01;;;;;;;9.27;2.33;;;;;;;;;;5038135;28;20048;-74
2023/03/27 02:06:47;;;;;;;10.20;2.35;;;;;;;;;;5072669;28;20127;-74
2023/03/27 02:09:27;;;;;;;15.77;2.50;;;;;;;;;;5072059;28;20053;-73
2023/03/27 02:11:56;;;;;;;7.15;2.30;;;;;;;;;;5072288;28;20056;-74
2023/03/27 02:14:24;;;;;;;10.32;2.10;;;;;;;;;;5072206;28;20478;-73
2023/03/27 02:16:56;;;;;;;11.98;2.50;;;;;;;;;;5072846;28;20049;-74
2023/03/27 02:19:26;;;;;;;8.95;2.13;;;;;;;;;;5072387;28;20048;-73
2023/03/27 02:21:52;;;;;;;8.55;2.47;;;;;;;;;;5071788;28;20067;-73
2023/03/27 02:24:18;;;;;;;11.35;2.30;;;;;;;;;;5051762;28;20437;-74
2023/03/27 02:26:44;;;;;;;10.82;2.60;;;;;;;;;;5052393;28;20048;-73
2023/03/27 02:29:20;;;;;;;9.20;2.33;;;;;;;;;;5072402;28;20085;-74
2023/03/27 02:31:46;;;;;;;8.73;2.25;;;;;;;;;;5072510;28;20133;-74
2023/03/27 02:34:21;;;;;;;13.20;2.55;;;;;;;;;;5054327;28;20137;-73
2023/03/27 02:37:02;;;;;;;11.43;2.60;;;;;;;;;;5053751;28;20063;-73
2023/03/27 02:39:34;;;;;;;11.45;2.58;;;;;;;;;;5071999;28;20079;-73
2023/03/27 02:42:19;;;;;;;7.40;2.40;;;;;;;;;;5072389;28;20439;-73
2023/03/27 02:44:51;;;;;;;10.38;2.63;;;;;;;;;;5072147;28;20404;-73
2023/03/27 02:47:32;;;;;;;7.00;2.15;;;;;;;;;;5054330;28;20052;-73
2023/03/27 02:50:17;;;;;;;9.30;2.53;;;;;;;;;;5071881;28;20045;-73
2023/03/27 02:52:50;;;;;;;10.75;2.55;;;;;;;;;;5071441;28;20075;-73
2023/03/27 02:55:28;;;;;;;6.57;2.13;;;;;;;;;;5052513;28;20041;-73
2023/03/27 02:57:58;;;;;;;9.85;2.30;;;;;;;;;;5072161;28;20048;-73
2023/03/27 03:00:26;;;;;;;8.23;2.40;;;;;;;;;;5054148;28;20083;-74
2023/03/27 03:02:57;;;;;;;8.25;2.38;;;;;;;;;;5035956;28;20450;-73
2023/03/27 03:05:24;;;;;;;8.93;2.67;;;;;;;;;;5070032;28;20058;-74
2023/03/27 03:07:53;;;;;;;14.48;3.45;;;;;;;;;;5052650;28;20053;-74
2023/03/27 03:10:20;;;;;;;9.73;2.47;;;;;;;;;;5071832;28;20049;-73
2023/03/27 03:12:46;;;;;;;6.72;2.63;;;;;;;;;;5053594;28;20064;-73
2023/03/27 03:15:12;;;;;;;11.38;2.50;;;;;;;;;;5053808;28;20074;-74
2023/03/27 03:17:38;;;;;;;8.38;2.40;;;;;;;;;;5054186;28;20435;-73
2023/03/27 03:20:06;;;;;;;10.52;2.58;;;;;;;;;;5071971;28;20045;-73
2023/03/27 03:22:32;;;;;;;9.85;2.50;;;;;;;;;;5070951;28;20037;-73
2023/03/27 03:24:58;;;;;;;8.90;2.60;;;;;;;;;;5070248;28;20492;-74
2023/03/27 03:27:24;;;;;;;8.32;2.45;;;;;;;;;;5051453;28;20052;-73
2023/03/27 03:29:51;;;;;;;13.55;3.15;;;;;;;;;;5069272;28;20041;-74
2023/03/27 03:32:17;;;;;;;13.18;2.95;;;;;;;;;;5071959;28;20045;-73
2023/03/27 03:34:45;;;;;;;13.30;2.92;;;;;;;;;;5071604;28;20049;-74
2023/03/27 03:37:11;;;;;;;9.40;2.35;;;;;;;;;;5052050;28;20125;-74
2023/03/27 03:39:38;;;;;;;6.93;2.40;;;;;;;;;;5033589;28;20043;-73
2023/03/27 03:42:04;;;;;;;8.63;2.47;;;;;;;;;;5033762;28;20486;-73
2023/03/27 03:44:30;;;;;;;8.93;2.47;;;;;;;;;;5051316;28;20048;-74
2023/03/27 03:46:56;;;;;;;9.05;2.72;;;;;;;;;;5017346;28;20040;-74
2023/03/27 03:49:22;;;;;;;8.10;2.42;;;;;;;;;;5051457;28;20045;-73
2023/03/27 03:51:48;;;;;;;13.00;2.63;;;;;;;;;;5050960;28;20092;-73
2023/03/27 03:54:14;;;;;;;12.48;2.38;;;;;;;;;;5031968;28;20177;-73
2023/03/27 03:56:40;;;;;;;10.77;2.50;;;;;;;;;;5033453;28;20611;-74
2023/03/27 03:59:12;;;;;;;11.32;2.70;;;;;;;;;;5033272;28;20132;-73
2023/03/27 04:01:39;;;;;;;9.20;2.58;;;;;;;;;;5032403;28;20059;-73
2023/03/27 04:04:08;;;;;;;10.65;2.60;;;;;;;;;;5033386;28;20041;-73
2023/03/27 04:06:36;;;;;;;10.40;2.67;;;;;;;;;;5017649;28;20077;-74
2023/03/27 04:09:03;;;;;;;10.70;2.95;;;;;;;;;;5037202;28;20385;-73
2023/03/27 04:11:29;;;;;;;12.70;3.00;;;;;;;;;;5036950;28;20061;-73
2023/03/27 04:13:55;;;;;;;14.38;2.75;;;;;;;;;;5054596;28;20092;-73
2023/03/27 04:16:21;;;;;;;12.25;3.05;;;;;;;;;;5055000;28;20045;-74
2023/03/27 04:18:49;;;;;;;14.70;2.78;;;;;;;;;;5037183;28;20094;-73
2023/03/27 04:21:16;;;;;;;13.85;3.00;;;;;;;;;;5037021;28;20081;-73
2023/03/27 04:23:43;;;;;;;12.48;3.10;;;;;;;;;;5054682;28;20180;-73
2023/03/27 04:26:10;;;;;;;9.93;2.83;;;;;;;;;;5036817;28;20067;-73
2023/03/27 04:28:37;;;;;;;11.07;2.60;;;;;;;;;;5054462;28;20140;-74
2023/03/27 04:31:05;;;;;;;11.20;2.60;;;;;;;;;;5036807;28;20108;-73
2023/03/27 04:33:33;;;;;;;14.30;2.88;;;;;;;;;;5054418;28;20124;-74
2023/03/27 04:35:59;;;;;;;6.20;2.10;;;;;;;;;;5036488;28;20045;-73
2023/03/27 04:38:26;;;;;;;8.52;1.98;;;;;;;;;;5054178;28;20045;-74
2023/03/27 04:40:53;;;;;;;8.02;2.15;;;;;;;;;;5036255;28;20113;-75
2023/03/27 04:43:19;;;;;;;6.88;1.67;;;;;;;;;;5036272;28;20049;-75
2023/03/27 04:45:47;;;;;;;12.18;2.33;;;;;;;;;;5036129;28;20044;-74
2023/03/27 04:48:14;;;;;;;11.32;2.03;;;;;;;;;;5054263;28;20067;-74
2023/03/27 04:50:42;;;;;;;11.65;2.10;;;;;;;;;;5054264;28;20044;-75
2023/03/27 04:53:09;;;;;;;7.30;1.90;;;;;;;;;;5036296;28;20163;-75
2023/03/27 04:55:38;;;;;;;8.63;1.73;;;;;;;;;;5053942;28;20456;-75
2023/03/27 04:58:04;;;;;;;5.05;1.35;;;;;;;;;;5035962;28;20056;-75
2023/03/27 05:00:30;;;;;;;8.10;1.50;;;;;;;;;;5036099;28;20414;-75
2023/03/27 05:02:56;;;;;;;12.68;1.60;;;;;;;;;;5035798;28;20509;-75
2023/03/27 05:05:24;;;;;;;7.78;1.60;;;;;;;;;;5036041;28;20470;-74
2023/03/27 05:07:50;;;;;;;4.95;1.33;;;;;;;;;;5053841;28;20060;-74
2023/03/27 05:10:16;;;;;;;4.72;1.40;;;;;;;;;;5053628;28;20124;-75
2023/03/27 05:12:46;;;;;;;5.30;1.40;;;;;;;;;;5053259;28;20405;-75
2023/03/27 05:15:12;;;;;;;4.13;1.20;;;;;;;;;;5035734;28;20059;-75
2023/03/27 05:17:39;;;;;;;2.45;1.30;;;;;;;;;;5053352;28;20077;-75
2023/03/27 05:20:07;;;;;;;5.55;1.52;;;;;;;;;;5053048;28;20049;-75
2023/03/27 05:22:33;;;;;;;4.38;1.50;;;;;;;;;;5019047;28;20041;-74
2023/03/27 05:25:00;;;;;;;4.30;1.33;;;;;;;;;;5053331;28;20052;-75
2023/03/27 05:27:26;;;;;;;5.72;1.55;;;;;;;;;;5035273;28;20264;-74
2023/03/27 05:29:52;;;;;;;7.22;1.70;;;;;;;;;;5035163;28;20512;-75
2023/03/27 05:32:18;;;;;;;5.40;1.75;;;;;;;;;;5035624;28;20063;-75
2023/03/27 05:34:44;;;;;;;7.63;2.00;;;;;;;;;;5018732;28;20435;-74
2023/03/27 05:37:10;;;;;;;5.97;1.83;;;;;;;;;;5036616;28;20432;-75
2023/03/27 05:39:36;;;;;;;9.52;1.75;;;;;;;;;;5054811;28;20092;-74
2023/03/27 05:42:03;;;;;;;6.88;1.67;;;;;;;;;;5054773;28;20044;-74
2023/03/27 05:44:32;;;;;;;6.10;1.63;;;;;;;;;;5072919;28;20127;-75
2023/03/27 05:46:58;;;;;;;8.95;2.13;;;;;;;;;;5054598;28;20127;-74
2023/03/27 05:49:24;;;;;;;6.60;1.90;;;;;;;;;;5071012;28;20048;-75
2023/03/27 05:51:51;;;;;;;10.45;2.40;;;;;;;;;;5072623;28;20055;-75
2023/03/27 05:54:17;;;;;;;7.18;2.10;;;;;;;;;;5037921;28;20044;-74
2023/03/27 05:56:43;;;;;;;8.43;1.80;;;;;;;;;;5054851;28;20094;-74
2023/03/27 05:59:09;;;;;;;7.07;1.95;;;;;;;;;;5072477;28;20040;-74
2023/03/27 06:01:35;;;;;;;6.63;1.80;;;;;;;;;;5054737;28;20135;-75
2023/03/27 06:04:03;;;;;;;9.13;1.88;;;;;;;;;;5037712;28;20507;-74
2023/03/27 06:06:29;;;;;;;6.47;1.70;;;;;;;;;;5053229;28;20052;-74
2023/03/27 06:08:57;;;;;;;9.52;2.25;;;;;;;;;;5037705;28;20041;-75
2023/03/27 06:11:24;;;;;;;7.57;1.80;;;;;;;;;;5054061;28;20579;-76
2023/03/27 06:13:50;;;;;;;6.88;2.13;;;;;;;;;;5036437;28;20464;-76
2023/03/27 06:16:19;;;;;;;9.85;2.30;;;;;;;;;;5054436;28;20052;-76
2023/03/27 06:18:45;;;;;;;6.07;1.83;;;;;;;;;;5072514;28;20386;-76
2023/03/27 06:21:11;;;;;;;7.88;2.10;;;;;;;;;;5072147;28;20040;-75
2023/03/27 06:23:38;;;;;;;10.05;2.40;;;;;;;;;;5072118;28;20043;-75
2023/03/27 06:26:04;;;;;;;9.05;1.95;;;;;;;;;;5053735;28;20059;-76
2023/03/27 06:28:30;;;;;;;7.70;2.00;;;;;;;;;;5037450;28;20040;-75
2023/03/27 06:30:58;;;;;;;7.53;1.95;;;;;;;;;;5071641;28;20067;-76
2023/03/27 06:33:24;;;;;;;9.20;2.38;;;;;;;;;;5072064;28;20115;-73
2023/03/27 06:35:51;;;;;;;9.10;2.00;;;;;;;;;;5072069;28;20106;-76
2023/03/27 06:38:19;;;;;;;12.10;2.38;;;;;;;;;;5061324;28;20080;-73
2023/03/27 06:40:46;;;;;;;11.65;2.40;;;;;;;;;;5051866;28;20045;-74
2023/03/27 06:43:12;;;;;;;7.07;2.00;;;;;;;;;;5034169;28;20095;-74
2023/03/27 06:45:45;;;;;;;9.43;2.10;;;;;;;;;;5051592;28;20084;-74
2023/03/27 06:48:11;;;;;;;5.63;2.00;;;;;;;;;;5051848;28;20409;-74
2023/03/27 06:50:38;;;;;;;11.80;2.35;;;;;;;;;;5051611;28;20068;-74
2023/03/27 06:53:04;;;;;;;7.10;2.20;;;;;;;;;;5051524;28;20045;-73
2023/03/27 06:55:31;;;;;;;8.05;2.00;;;;;;;;;;5051363;28;20048;-74
2023/03/27 06:57:58;;;;;;;12.45;2.25;;;;;;;;;;5033780;28;20581;-74
2023/03/27 07:00:25;;;;;;;12.82;2.40;;;;;;;;;;5033605;28;20052;-74
2023/03/27 07:02:55;;;;;;;12.18;3.42;;;;;;;;;;5051774;28;20132;-74
2023/03/27 07:05:21;;;;;;;13.48;3.35;;;;;;;;;;5051584;28;20060;-74
2023/03/27 07:07:47;;;;;;;9.55;2.78;;;;;;;;;;5033515;28;20041;-74
2023/03/27 07:10:14;;;;;;;13.43;2.50;;;;;;;;;;5040280;28;20370;-74
2023/03/27 07:12:44;;;;;;;13.82;2.33;;;;;;;;;;5031562;28;20512;-74
2023/03/27 07:15:10;;;;;;;8.88;2.10;;;;;;;;;;5034918;28;20052;-74
2023/03/27 07:17:36;;;;;;;9.43;2.40;;;;;;;;;;5044239;28;20044;-74
2023/03/27 07:20:04;;;;;;;11.68;2.45;;;;;;;;;;5060252;28;20040;-74
2023/03/27 07:22:30;;;;;;;8.15;2.20;;;;;;;;;;5035562;28;20473;-74
2023/03/27 07:24:56;;;;;;;8.23;2.20;;;;;;;;;;5050905;28;20056;-74
2023/03/27 07:27:26;;;;;;;6.97;2.15;;;;;;;;;;5069259;28;20051;-74
2023/03/27 07:29:52;;;;;;;6.07;1.90;;;;;;;;;;5065406;28;20033;-74
2023/03/27 07:32:18;;;;;;;10.57;2.30;;;;;;;;;;5047672;28;20132;-74
2023/03/27 07:34:45;;;;;;;10.68;2.35;;;;;;;;;;5051369;28;20052;-74
2023/03/27 07:37:11;;;;;;;9.13;2.30;;;;;;;;;;5051520;28;20084;-75
2023/03/27 07:39:37;;;;;;;7.93;2.17;;;;;;;;;;5021418;28;20091;-74
2023/03/27 07:42:03;;;;;;;5.65;1.83;;;;;;;;;;5033216;28;20040;-75
2023/03/27 07:44:29;;;;;;;5.82;1.60;;;;;;;;;;5065329;28;20040;-74
2023/03/27 07:46:55;;;;;;;9.65;2.00;;;;;;;;;;5070485;28;20040;-74
2023/03/27 07:49:21;;;;;;;7.03;1.73;;;;;;;;;;5037122;28;20052;-74
2023/03/27 07:51:48;;;;;;;6.32;2.00;;;;;;;;;;5038525;28;20112;-74
2023/03/27 07:54:15;;;;;;;5.82;1.63;;;;;;;;;;5049357;28;20036;-74
2023/03/27 07:56:41;;;;;;;7.93;1.83;;;;;;;;;;5068857;28;20083;-76
2023/03/27 07:59:08;;;;;;;6.80;2.08;;;;;;;;;;5070812;28;20039;-75
2023/03/27 08:01:34;;;;;;;5.18;1.60;;;;;;;;;;5056554;28;20116;-74
2023/03/27 08:04:00;;;;;;;6.60;1.58;;;;;;;;;;5046612;28;20047;-74
2023/03/27 08:06:26;;;;;;;6.40;1.95;;;;;;;;;;5028977;28;20053;-74
2023/03/27 08:08:52;;;;;;;7.82;1.67;;;;;;;;;;5048536;28;20051;-74
2023/03/27 08:11:19;;;;;;;5.85;1.65;;;;;;;;;;5064903;28;20106;-75
2023/03/27 08:13:45;;;;;;;4.90;1.50;;;;;;;;;;5049833;28;20045;-74
2023/03/27 08:16:13;;;;;;;5.55;1.50;;;;;;;;;;5070047;28;20049;-74
2023/03/27 08:18:41;;;;;;;6.15;1.60;;;;;;;;;;5049113;28;20090;-74
2023/03/27 08:21:07;;;;;;;5.88;1.67;;;;;;;;;;5059505;28;20047;-74
2023/03/27 08:23:34;;;;;;;9.07;1.70;;;;;;;;;;5065434;28;20068;-74
2023/03/27 08:26:00;;;;;;;5.88;1.63;;;;;;;;;;5073202;28;20119;-74
2023/03/27 08:28:31;;;;;;;6.22;2.10;;;;;;;;;;5028418;28;20102;-74
2023/03/27 08:30:58;;;;;;;4.53;1.63;;;;;;;;;;5072340;28;20113;-75
2023/03/27 08:33:26;;;;;;;6.68;2.20;;;;;;;;;;5053209;28;20051;-75
2023/03/27 08:35:53;;;;;;;5.75;2.47;;;;;;;;;;5074079;28;20123;-75
2023/03/27 08:38:19;;;;;;;6.65;2.10;;;;;;;;;;5064856;28;20049;-75
2023/03/27 08:40:50;;;;;;;6.68;2.05;;;;;;;;;;5067406;28;20128;-75
2023/03/27 08:43:21;;;;;;;5.75;1.67;;;;;;;;;;5050167;28;20051;-75
2023/03/27 08:45:52;;;;;;;6.50;1.73;;;;;;;;;;5040074;28;20136;-74
2023/03/27 08:48:39;;;;;;;5.97;1.77;;;;;;;;;;5066679;28;20041;-74
2023/03/27 08:51:05;;;;;;;;;;;;;;;;;;5041653;28;20045;-74
2023/03/27 08:53:34;;;;;;;6.25;1.60;;;;;;;;;;5054846;28;20450;-75
2023/03/27 08:56:02;;;;;;;7.53;2.00;;;;;;;;;;5069661;28;20094;-75
2023/03/27 08:58:32;;;;;;;3.17;1.40;;;;;;;;;;5048662;28;20546;-75
2023/03/27 09:01:08;;;;;;;4.50;1.52;;;;;;;;;;5054247;28;20064;-75
2023/03/27 09:03:45;;;;;;;3.53;1.27;;;;;;;;;;5060630;28;20037;-75
2023/03/27 09:06:37;;;;;;;5.82;1.63;;;;;;;;;;5055337;28;20098;-75
2023/03/27 09:09:03;;;;;;;4.70;1.42;;;;;;;;;;5022322;28;20068;-75
2023/03/27 09:11:29;;;;;;;6.28;1.90;;;;;;;;;;5053402;28;20057;-75
2023/03/27 09:13:56;;;;;;;4.05;1.40;;;;;;;;;;5051696;28;20591;-75
2023/03/27 09:16:25;;;;;;;7.03;1.60;;;;;;;;;;5028746;28;20051;-75
2023/03/27 09:19:12;;;;;;;8.02;1.60;;;;;;;;;;5066621;28;20045;-75
2023/03/27 09:21:44;;;;;;;4.55;1.40;;;;;;;;;;5072487;28;20048;-75
2023/03/27 09:24:17;;;;;;;6.38;1.40;;;;;;;;;;5067242;28;20051;-76
2023/03/27 09:26:43;;;;;;;4.20;1.58;;;;;;;;;;5069329;28;20072;-76
2023/03/27 09:29:21;;;;;;;2.50;1.20;;;;;;;;;;5072272;28;20037;-76
2023/03/27 09:31:51;;;;;;;4.93;1.58;;;;;;;;;;5039418;28;20040;-76
2023/03/27 09:34:25;;;;;;;5.03;1.30;;;;;;;;;;5061924;28;20095;-76
2023/03/27 09:36:52;;;;;;;5.80;1.40;;;;;;;;;;5046494;28;20044;-76
2023/03/27 09:39:22;;;;;;;3.55;1.33;;;;;;;;;;5033266;28;20081;-76
2023/03/27 09:41:50;;;;;;;7.18;1.58;;;;;;;;;;5055401;28;20040;-76
2023/03/27 09:44:31;;;;;;;3.67;1.30;;;;;;;;;;5066606;28;20072;-76
2023/03/27 09:47:13;;;;;;;2.72;1.38;;;;;;;;;;5071513;28;20138;-75
2023/03/27 09:49:43;;;;;;;4.28;1.40;;;;;;;;;;5067633;28;20056;-76
2023/03/27 09:52:19;;;;;;;4.20;1.45;;;;;;;;;;5064272;28;20111;-76
2023/03/27 09:54:52;;;;;;;5.07;1.50;;;;;;;;;;5067806;28;20111;-76
2023/03/27 09:57:19;;;;;;;4.35;1.70;;;;;;;;;;5072394;28;20045;-76
2023/03/27 09:59:59;;;;;;;6.65;1.50;;;;;;;;;;5059463;28;20350;-76
2023/03/27 10:02:29;;;;;;;8.07;1.60;;;;;;;;;;5040618;28;20041;-77
2023/03/27 10:04:59;;;;;;;4.10;1.30;;;;;;;;;;5048360;28;20040;-75
2023/03/27 10:07:26;;;;;;;5.00;1.50;;;;;;;;;;5035414;28;20120;-75
2023/03/27 10:10:04;;;;;;;7.60;1.70;;;;;;;;;;5068310;28;20040;-75
2023/03/27 10:12:30;;;;;;;6.18;1.80;;;;;;;;;;5065972;28;20064;-76
2023/03/27 10:14:56;;;;;;;6.05;1.50;;;;;;;;;;5071800;28;20052;-76
2023/03/27 10:17:27;;;;;;;6.63;1.40;;;;;;;;;;5038642;28;20174;-76
2023/03/27 10:19:58;;;;;;;7.22;1.60;;;;;;;;;;5039579;28;20068;-76
2023/03/27 10:22:28;;;;;;;4.90;1.70;;;;;;;;;;5027725;28;20133;-76
2023/03/27 10:24:58;;;;;;;4.80;1.55;;;;;;;;;;5071590;28;20615;-76
2023/03/27 10:27:25;;;;;;;5.00;1.50;;;;;;;;;;5068355;28;20040;-76
2023/03/27 10:29:51;;;;;;;4.65;1.40;;;;;;;;;;5050936;28;20048;-76
2023/03/27 10:32:18;;;;;;;6.47;1.40;;;;;;;;;;5045211;28;20044;-76
2023/03/27 10:34:54;;;;;;;5.80;1.50;;;;;;;;;;5029968;28;20037;-76
2023/03/27 10:37:30;;;;;;;3.85;1.42;;;;;;;;;;5047015;28;20045;-76
2023/03/27 10:39:59;;;;;;;5.68;1.63;;;;;;;;;;5039885;28;20060;-76
2023/03/27 10:42:26;;;;;;;5.57;1.90;;;;;;;;;;5051688;28;20127;-76
2023/03/27 10:44:55;;;;;;;4.75;1.63;;;;;;;;;;5036235;28;20494;-76
2023/03/27 10:47:26;;;;;;;5.05;1.40;;;;;;;;;;5055909;28;20178;-77
2023/03/27 10:49:52;;;;;;;5.55;1.60;;;;;;;;;;5057169;28;20045;-76
2023/03/27 10:52:24;;;;;;;6.05;1.45;;;;;;;;;;5034156;28;20041;-76
2023/03/27 10:55:14;;;;;;;5.63;1.35;;;;;;;;;;5037212;28;20036;-76
2023/03/27 10:57:41;;;;;;;7.60;1.58;;;;;;;;;;5018317;28;20111;-76
2023/03/27 11:00:21;;;;;;;7.22;1.58;;;;;;;;;;5045844;28;20037;-76
2023/03/27 11:02:57;;;;;;;8.02;1.98;;;;;;;;;;5025944;28;20155;-75
2023/03/27 11:05:32;;;;;;;4.88;1.73;;;;;;;;;;5064480;28;20036;-75
2023/03/27 11:08:11;;;;;;;6.03;1.60;;;;;;;;;;5028044;28;20076;-76
2023/03/27 11:10:41;;;;;;;8.13;1.67;;;;;;;;;;5024387;28;20047;-76
2023/03/27 11:13:16;;;;;;;5.25;1.50;;;;;;;;;;5053195;28;20078;-76
2023/03/27 11:15:53;;;;;;;7.65;1.70;;;;;;;;;;5057510;28;20082;-76
2023/03/27 11:18:38;;;;;;;5.70;1.63;;;;;;;;;;5064848;28;20123;-75
2023/03/27 11:21:07;;;;;;;5.03;1.55;;;;;;;;;;5052530;28;20127;-75
2023/03/27 11:23:46;;;;;;;6.10;1.70;;;;;;;;;;5073230;28;20040;-75
2023/03/27 11:26:14;;;;;;;6.18;1.67;;;;;;;;;;5037125;28;20049;-75
2023/03/27 11:28:42;;;;;;;3.63;1.50;;;;;;;;;;5067398;28;20067;-76
2023/03/27 11:31:14;;;;;;;4.45;1.60;;;;;;;;;;5055614;28;20032;-75
2023/03/27 11:33:43;;;;;;;6.45;1.60;;;;;;;;;;5058484;28;20094;-74
2023/03/27 11:36:21;;;;;;;6.10;1.75;;;;;;;;;;5029326;28;20456;-75
2023/03/27 11:38:56;;;;;;;6.95;1.92;;;;;;;;;;5065491;28;20096;-75
2023/03/27 11:41:22;;;;;;;5.45;1.70;;;;;;;;;;5060376;28;20385;-75
2023/03/27 11:43:48;;;;;;;7.03;1.92;;;;;;;;;;5052487;28;20040;-74
2023/03/27 11:46:20;;;;;;;4.80;1.63;;;;;;;;;;5032580;28;20136;-75
2023/03/27 11:48:50;;;;;;;4.80;1.52;;;;;;;;;;5027143;28;20048;-75
2023/03/27 11:51:25;;;;;;;6.40;1.70;;;;;;;;;;5054910;28;20472;-76
2023/03/27 11:53:51;;;;;;;;;;;;;;;;;;5034501;28;20387;-75
2023/03/27 11:56:17;;;;;;;;;;;;;;;;;;5070501;28;19928;-76
2023/03/27 11:58:43;;;;;;;;;;;;;;;;;;5051760;28;19994;-75
2023/03/27 12:01:11;;;;;;;;;;;;;;;;;;5046689;28;19927;-76
2023/03/27 12:03:52;;;;;;;4.78;1.50;;;;;;;;;;5067775;28;19924;-76
2023/03/27 12:06:29;;;;;;;5.30;1.60;;;;;;;;;;5059025;28;20032;-76
2023/03/27 12:08:58;;;;;;;5.88;1.85;;;;;;;;;;5059177;28;20119;-76
2023/03/27 12:11:25;;;;;;;9.25;2.03;;;;;;;;;;5046294;28;20271;-76
2023/03/27 12:13:57;;;;;;;6.10;1.70;;;;;;;;;;5059808;28;20397;-76
2023/03/27 12:16:44;;;;;;;6.65;1.80;;;;;;;;;;5064525;28;20037;-75
2023/03/27 12:19:29;;;;;;;8.27;1.98;;;;;;;;;;5043576;28;20455;-76
2023/03/27 12:21:55;;;;;;;7.63;1.63;;;;;;;;;;5058836;28;20055;-76
2023/03/27 12:24:40;;;;;;;4.50;1.65;;;;;;;;;;5060656;28;20878;-76
2023/03/27 12:27:15;;;;;;;5.88;1.90;;;;;;;;;;5048983;28;20048;-76
2023/03/27 12:29:50;;;;;;;7.00;1.63;;;;;;;;;;5063904;28;20048;-75
2023/03/27 12:32:23;;;;;;;5.05;1.52;;;;;;;;;;5056142;28;20374;-75
2023/03/27 12:34:58;;;;;;;3.85;1.45;;;;;;;;;;5068785;28;20099;-75
2023/03/27 12:37:28;;;;;;;5.00;1.50;;;;;;;;;;5055902;28;20105;-76
2023/03/27 12:39:57;;;;;;;6.07;1.70;;;;;;;;;;5050264;28;20044;-76
2023/03/27 12:42:50;;;;;;;6.53;1.90;;;;;;;;;;5044269;28;20058;-76
2023/03/27 12:45:16;;;;;;;9.15;1.75;;;;;;;;;;5069079;28;20405;-76
2023/03/27 12:48:01;;;;;;;6.35;1.67;;;;;;;;;;5055879;28;20037;-76
2023/03/27 12:50:31;;;;;;;5.68;1.75;;;;;;;;;;5073412;28;20113;-75
2023/03/27 12:53:03;;;;;;;5.20;1.60;;;;;;;;;;5035522;28;20045;-75
2023/03/27 12:55:35;;;;;;;3.55;1.38;;;;;;;;;;5054094;28;20053;-74
2023/03/27 12:58:03;;;;;;;4.88;1.45;;;;;;;;;;5073207;28;20115;-75
2023/03/27 13:00:33;;;;;;;7.82;1.80;;;;;;;;;;5055491;28;20094;-75
2023/03/27 13:03:18;;;;;;;7.10;1.98;;;;;;;;;;5036847;28;20040;-75
2023/03/27 13:05:59;;;;;;;5.25;1.60;;;;;;;;;;5047191;28;20048;-75
2023/03/27 13:08:25;;;;;;;5.72;1.63;;;;;;;;;;5058079;28;20501;-75
2023/03/27 13:10:54;;;;;;;8.55;1.80;;;;;;;;;;5028519;28;20048;-75
2023/03/27 13:13:34;;;;;;;6.47;1.80;;;;;;;;;;5051202;28;20127;-75
2023/03/27 13:16:04;;;;;;;6.30;1.90;;;;;;;;;;5024260;28;20124;-75
2023/03/27 13:18:31;;;;;;;6.63;1.77;;;;;;;;;;5057363;28;20116;-75
2023/03/27 13:21:03;;;;;;;9.07;1.85;;;;;;;;;;5055969;28;20048;-76
2023/03/27 13:23:48;;;;;;;7.57;2.00;;;;;;;;;;5061807;28;20040;-75
2023/03/27 13:26:17;;;;;;;7.13;1.90;;;;;;;;;;5052466;28;20084;-75
2023/03/27 13:28:51;;;;;;;6.68;1.80;;;;;;;;;;5050821;28;20049;-75
2023/03/27 13:31:37;;;;;;;5.40;1.80;;;;;;;;;;5052843;28;20497;-75
2023/03/27 13:34:31;;;;;;;6.82;1.92;;;;;;;;;;5025098;28;20420;-75
2023/03/27 13:37:15;;;;;;;6.53;2.10;;;;;;;;;;5053269;28;20055;-76
2023/03/27 13:40:09;;;;;;;7.55;1.90;;;;;;;;;;5033572;28;20398;-76
2023/03/27 13:42:43;;;;;;;8.60;1.80;;;;;;;;;;5034524;28;20447;-75
2023/03/27 13:45:10;;;;;;;8.75;2.00;;;;;;;;;;5052885;28;20049;-76
2023/03/27 13:47:45;;;;;;;5.30;1.67;;;;;;;;;;5018708;28;20049;-76
2023/03/27 13:50:11;;;;;;;9.13;1.70;;;;;;;;;;5018176;28;20037;-76
2023/03/27 13:52:56;;;;;;;7.20;2.03;;;;;;;;;;5053077;28;20163;-76
2023/03/27 13:55:38;;;;;;;6.35;1.70;;;;;;;;;;5052669;28;20045;-76
2023/03/27 13:58:12;;;;;;;8.07;1.85;;;;;;;;;;5053167;28;20127;-75
2023/03/27 14:00:46;;;;;;;14.23;2.28;;;;;;;;;;5052965;28;20051;-76
2023/03/27 14:03:18;;;;;;;8.00;1.67;;;;;;;;;;5018035;28;20203;-76
2023/03/27 14:06:03;;;;;;;11.52;1.90;;;;;;;;;;5050258;28;20084;-76
2023/03/27 14:08:47;;;;;;;6.63;1.80;;;;;;;;;;5034603;28;20059;-75
2023/03/27 14:11:22;;;;;;;9.85;1.80;;;;;;;;;;5052479;28;20064;-75
2023/03/27 14:13:51;;;;;;;10.68;2.08;;;;;;;;;;5018130;28;20127;-75
2023/03/27 14:16:35;;;;;;;8.20;2.10;;;;;;;;;;5018302;28;20045;-75
2023/03/27 14:19:13;;;;;;;7.97;1.90;;;;;;;;;;5034632;28;20068;-75
2023/03/27 14:21:58;;;;;;;10.82;2.10;;;;;;;;;;5017073;28;20098;-75
2023/03/27 14:24:46;;;;;;;4.72;1.70;;;;;;;;;;5033663;28;20067;-75
2023/03/27 14:27:15;;;;;;;8.38;1.80;;;;;;;;;;5052345;28;20052;-75
2023/03/27 14:29:41;;;;;;;5.75;1.50;;;;;;;;;;5034201;28;20180;-74
2023/03/27 14:32:12;;;;;;;4.90;1.60;;;;;;;;;;5052297;28;20076;-75
2023/03/27 14:34:45;;;;;;;8.23;2.03;;;;;;;;;;5034035;28;20078;-75
2023/03/27 14:37:28;;;;;;;7.00;1.80;;;;;;;;;;5050723;28;20131;-75
2023/03/27 14:39:58;;;;;;;6.40;1.58;;;;;;;;;;5032495;28;20041;-75
2023/03/27 14:42:28;;;;;;;6.72;1.90;;;;;;;;;;5031570;28;20125;-74
2023/03/27 14:45:19;;;;;;;5.68;1.80;;;;;;;;;;5032755;28;20045;-74
2023/03/27 14:47:49;;;;;;;8.52;1.90;;;;;;;;;;5017840;28;20045;-74
2023/03/27 14:50:16;;;;;;;6.93;1.85;;;;;;;;;;5017233;28;20036;-74
2023/03/27 14:52:43;;;;;;;6.82;1.92;;;;;;;;;;5051869;28;20499;-74
2023/03/27 14:55:12;;;;;;;7.72;2.00;;;;;;;;;;5051677;28;20077;-75
2023/03/27 14:57:40;;;;;;;7.13;1.85;;;;;;;;;;5051827;28;20049;-74
2023/03/27 15:00:06;;;;;;;6.25;1.70;;;;;;;;;;5049749;28;20088;-75